Time;durP1;ratioP1;P1;durP2;ratioP2;P2;SDS_P1;SDS_P2;PMS_P1;PMS_P2;Temp;Humidity;BMP_temperature;BMP_pressure;BME280_temperature;BME280_humidity;BME280_pressure;Samples;Min_cycle;Max_cycle;Signal;HPM_P1;HPM_P2
2022/10/31 00:00:26;;;;;;;30.45;14.15;;;;;;;;;;4988220;28;20116;-66
2022/10/31 00:02:52;;;;;;;24.73;14.45;;;;;;;;;;4986063;28;20034;-66
2022/10/31 00:05:18;;;;;;;26.73;12.98;;;;;;;;;;4982431;28;20121;-65
2022/10/31 00:07:44;;;;;;;27.02;14.02;;;;;;;;;;4983561;28;20318;-66
2022/10/31 00:10:10;;;;;;;21.90;13.75;;;;;;;;;;4980780;28;20065;-65
2022/10/31 00:12:36;;;;;;;26.25;14.00;;;;;;;;;;4986005;28;20030;-66
2022/10/31 00:15:02;;;;;;;20.80;13.55;;;;;;;;;;4966402;28;20508;-66
2022/10/31 00:17:28;;;;;;;26.08;13.10;;;;;;;;;;4948822;28;20030;-66
2022/10/31 00:19:54;;;;;;;27.50;13.25;;;;;;;;;;4987398;28;20030;-66
2022/10/31 00:22:20;;;;;;;20.35;12.68;;;;;;;;;;4984889;28;20081;-66
2022/10/31 00:24:46;;;;;;;23.60;13.23;;;;;;;;;;4986400;28;20382;-66
2022/10/31 00:27:12;;;;;;;22.58;13.13;;;;;;;;;;4976986;28;20117;-66
2022/10/31 00:29:38;;;;;;;26.92;13.02;;;;;;;;;;4981258;28;20081;-66
2022/10/31 00:32:04;;;;;;;22.08;13.73;;;;;;;;;;4987836;28;20046;-66
2022/10/31 00:34:30;;;;;;;28.17;14.35;;;;;;;;;;4965291;28;20027;-66
2022/10/31 00:36:56;;;;;;;24.33;13.80;;;;;;;;;;4981680;28;20169;-66
2022/10/31 00:39:22;;;;;;;21.58;14.05;;;;;;;;;;4981653;28;20035;-66
2022/10/31 00:41:48;;;;;;;24.35;14.90;;;;;;;;;;4986258;28;20027;-66
2022/10/31 00:44:14;;;;;;;24.15;15.35;;;;;;;;;;4979954;28;20038;-66
2022/10/31 00:46:40;;;;;;;25.58;15.02;;;;;;;;;;4983973;28;20236;-66
2022/10/31 00:49:06;;;;;;;25.13;15.40;;;;;;;;;;4979939;28;20027;-66
2022/10/31 00:51:32;;;;;;;24.77;14.70;;;;;;;;;;4983560;28;20431;-66
2022/10/31 00:53:58;;;;;;;22.27;15.02;;;;;;;;;;4966552;28;20053;-66
2022/10/31 00:56:24;;;;;;;27.95;15.07;;;;;;;;;;4976921;28;20035;-66
2022/10/31 00:58:50;;;;;;;23.88;15.25;;;;;;;;;;4985523;28;20031;-66
2022/10/31 01:01:16;;;;;;;27.98;15.02;;;;;;;;;;4986709;28;20022;-66
2022/10/31 01:03:42;;;;;;;26.85;14.88;;;;;;;;;;4959790;28;20047;-66
2022/10/31 01:06:10;;;;;;;25.73;16.23;;;;;;;;;;4965226;28;20394;-66
2022/10/31 01:08:36;;;;;;;25.75;16.50;;;;;;;;;;4963846;28;20066;-66
2022/10/31 01:11:05;;;;;;;30.70;17.35;;;;;;;;;;4949051;28;20066;-66
2022/10/31 01:13:31;;;;;;;27.75;17.40;;;;;;;;;;4948750;28;20066;-66
2022/10/31 01:15:58;;;;;;;29.05;16.50;;;;;;;;;;4962023;28;20043;-66
2022/10/31 01:18:24;;;;;;;30.63;17.13;;;;;;;;;;4961720;28;20057;-66
2022/10/31 01:21:03;;;;;;;32.55;17.30;;;;;;;;;;4968617;28;20078;-66
2022/10/31 01:23:29;;;;;;;27.85;16.95;;;;;;;;;;4970464;28;20448;-66
2022/10/31 01:25:59;;;;;;;33.50;17.05;;;;;;;;;;4968456;28;20023;-66
2022/10/31 01:28:25;;;;;;;27.27;16.43;;;;;;;;;;4966924;28;20034;-65
2022/10/31 01:30:51;;;;;;;34.22;16.92;;;;;;;;;;4969993;28;20035;-65
2022/10/31 01:33:17;;;;;;;30.83;18.10;;;;;;;;;;4970438;28;20340;-67
2022/10/31 01:35:43;;;;;;;31.20;18.52;;;;;;;;;;4967841;28;20030;-66
2022/10/31 01:38:09;;;;;;;35.00;19.75;;;;;;;;;;4968180;28;20046;-66
2022/10/31 01:40:35;;;;;;;34.47;19.40;;;;;;;;;;4970427;28;20035;-66
2022/10/31 01:43:01;;;;;;;41.03;20.45;;;;;;;;;;4968713;28;20065;-67
2022/10/31 01:45:27;;;;;;;32.95;20.65;;;;;;;;;;4965145;28;20035;-66
2022/10/31 01:47:53;;;;;;;42.63;20.60;;;;;;;;;;4950179;28;20533;-66
2022/10/31 01:50:28;;;;;;;39.17;21.35;;;;;;;;;;4967403;28;20041;-67
2022/10/31 01:52:55;;;;;;;35.33;20.70;;;;;;;;;;4967298;28;20027;-66
2022/10/31 01:55:25;;;;;;;40.30;21.80;;;;;;;;;;4967585;28;20027;-67
2022/10/31 01:57:52;;;;;;;43.75;22.77;;;;;;;;;;4967533;28;20031;-67
2022/10/31 02:00:20;;;;;;;43.97;23.83;;;;;;;;;;4967799;28;20390;-67
2022/10/31 02:02:47;;;;;;;36.72;22.23;;;;;;;;;;4967221;28;20407;-67
2022/10/31 02:05:15;;;;;;;37.60;22.27;;;;;;;;;;4987811;28;20193;-67
2022/10/31 02:07:44;;;;;;;39.13;22.30;;;;;;;;;;4987240;28;20070;-66
2022/10/31 02:10:11;;;;;;;45.85;24.20;;;;;;;;;;4982083;28;20026;-66
2022/10/31 02:12:38;;;;;;;39.80;22.77;;;;;;;;;;4986426;28;20038;-69
2022/10/31 02:15:04;;;;;;;53.28;24.52;;;;;;;;;;4970960;28;20049;-67
2022/10/31 02:17:30;;;;;;;45.13;24.27;;;;;;;;;;4986969;28;20044;-66
2022/10/31 02:19:56;;;;;;;43.30;24.05;;;;;;;;;;4990408;28;20031;-66
2022/10/31 02:22:25;;;;;;;43.33;24.92;;;;;;;;;;4989411;28;20026;-67
2022/10/31 02:25:03;;;;;;;42.35;23.75;;;;;;;;;;4983677;28;20028;-67
2022/10/31 02:28:08;;;;;;;54.83;26.40;;;;;;;;;;4986287;28;20027;-66
2022/10/31 02:30:46;;;;;;;48.88;26.35;;;;;;;;;;4927755;29;20276;-66
2022/10/31 02:33:12;;;;;;;60.38;30.95;;;;;;;;;;4927611;29;20062;-66
2022/10/31 02:35:44;;;;;;;57.17;30.58;;;;;;;;;;4958879;28;20397;-66
2022/10/31 02:38:13;;;;;;;66.47;30.70;;;;;;;;;;4986983;28;20164;-66
2022/10/31 02:40:59;;;;;;;59.90;31.67;;;;;;;;;;4988273;28;20035;-66
2022/10/31 02:43:36;;;;;;;69.20;32.92;;;;;;;;;;4970180;28;20057;-67
2022/10/31 02:46:13;;;;;;;70.88;35.90;;;;;;;;;;4985361;28;20054;-66
2022/10/31 02:48:40;;;;;;;74.70;35.47;;;;;;;;;;4987319;28;20087;-66
2022/10/31 02:51:06;;;;;;;73.68;37.95;;;;;;;;;;4988322;28;20177;-66
2022/10/31 02:53:36;;;;;;;75.13;38.67;;;;;;;;;;4983943;28;20519;-66
2022/10/31 02:56:09;;;;;;;83.55;41.53;;;;;;;;;;4984589;28;20039;-66
2022/10/31 02:58:39;;;;;;;84.07;40.33;;;;;;;;;;4986250;28;20481;-66
2022/10/31 03:01:24;;;;;;;69.25;36.78;;;;;;;;;;4988025;28;20042;-66
2022/10/31 03:03:58;;;;;;;65.15;36.53;;;;;;;;;;4979018;28;20050;-66
2022/10/31 03:06:29;;;;;;;78.13;40.83;;;;;;;;;;4983244;28;20022;-66
2022/10/31 03:09:07;;;;;;;82.63;40.60;;;;;;;;;;4985031;28;20026;-67
2022/10/31 03:11:46;;;;;;;89.78;43.53;;;;;;;;;;4983353;28;20500;-67
2022/10/31 03:14:24;;;;;;;86.20;41.15;;;;;;;;;;4984409;28;20030;-66
2022/10/31 03:16:52;;;;;;;85.03;41.55;;;;;;;;;;4983290;28;20117;-67
2022/10/31 03:19:18;;;;;;;99.07;43.70;;;;;;;;;;4983409;28;20042;-67
2022/10/31 03:21:49;;;;;;;100.15;45.95;;;;;;;;;;4988489;28;20688;-67
2022/10/31 03:24:15;;;;;;;98.10;44.88;;;;;;;;;;4982936;28;20508;-67
2022/10/31 03:26:49;;;;;;;94.55;44.80;;;;;;;;;;4986065;28;20520;-67
2022/10/31 03:29:17;;;;;;;93.75;44.33;;;;;;;;;;4980944;28;20034;-66
2022/10/31 03:31:46;;;;;;;107.32;47.78;;;;;;;;;;4984688;28;20528;-67
2022/10/31 03:34:13;;;;;;;113.28;47.88;;;;;;;;;;4985571;28;20027;-67
2022/10/31 03:36:40;;;;;;;120.15;49.08;;;;;;;;;;4983538;28;20122;-67
2022/10/31 03:39:08;;;;;;;112.13;49.97;;;;;;;;;;4986148;28;20092;-67
2022/10/31 03:41:36;;;;;;;114.20;51.47;;;;;;;;;;4985484;28;20482;-67
2022/10/31 03:44:09;;;;;;;115.40;49.42;;;;;;;;;;4982737;28;20560;-66
2022/10/31 03:46:35;;;;;;;119.65;51.38;;;;;;;;;;4986732;28;20026;-66
2022/10/31 03:49:01;;;;;;;108.95;50.90;;;;;;;;;;4982405;28;20190;-67
2022/10/31 03:51:36;;;;;;;119.55;51.15;;;;;;;;;;4986974;28;20180;-66
2022/10/31 03:54:04;;;;;;;132.77;54.13;;;;;;;;;;4975454;28;20035;-66
2022/10/31 03:56:33;;;;;;;118.03;53.25;;;;;;;;;;4985955;28;20026;-66
2022/10/31 03:59:03;;;;;;;132.60;56.85;;;;;;;;;;4987404;28;20421;-66
2022/10/31 04:01:30;;;;;;;138.73;56.55;;;;;;;;;;4985342;28;20253;-67
2022/10/31 04:03:57;;;;;;;134.38;57.42;;;;;;;;;;4966570;28;20042;-66
2022/10/31 04:06:23;;;;;;;144.23;59.28;;;;;;;;;;4985250;28;20478;-66
2022/10/31 04:08:53;;;;;;;145.57;61.78;;;;;;;;;;4985508;28;20026;-66
2022/10/31 04:11:20;;;;;;;158.00;61.70;;;;;;;;;;4981259;28;20039;-67
2022/10/31 04:13:48;;;;;;;158.65;63.25;;;;;;;;;;4983857;28;20458;-68
2022/10/31 04:16:14;;;;;;;159.07;62.60;;;;;;;;;;4986000;28;20105;-67
2022/10/31 04:18:40;;;;;;;149.45;62.88;;;;;;;;;;4968837;28;20084;-67
2022/10/31 04:21:08;;;;;;;158.43;63.25;;;;;;;;;;4970603;28;20030;-67
2022/10/31 04:23:35;;;;;;;175.57;70.50;;;;;;;;;;4985583;28;20160;-67
2022/10/31 04:26:01;;;;;;;168.95;64.53;;;;;;;;;;4983469;28;20030;-67
2022/10/31 04:28:27;;;;;;;193.65;73.57;;;;;;;;;;4981262;28;20125;-67
2022/10/31 04:30:53;;;;;;;164.18;67.28;;;;;;;;;;4986651;28;20036;-67
2022/10/31 04:33:19;;;;;;;168.75;69.25;;;;;;;;;;4980837;28;20489;-67
2022/10/31 04:35:45;;;;;;;187.80;70.55;;;;;;;;;;4984329;28;20038;-65
2022/10/31 04:38:11;;;;;;;186.15;75.68;;;;;;;;;;4981214;28;20057;-67
2022/10/31 04:40:37;;;;;;;188.88;76.57;;;;;;;;;;4980925;28;20042;-66
2022/10/31 04:43:03;;;;;;;208.15;79.88;;;;;;;;;;4982549;28;20026;-66
2022/10/31 04:45:29;;;;;;;201.05;79.82;;;;;;;;;;4980055;28;20379;-67
2022/10/31 04:47:55;;;;;;;203.15;76.57;;;;;;;;;;4984538;28;20030;-67
2022/10/31 04:50:22;;;;;;;166.23;69.95;;;;;;;;;;4964676;28;20092;-67
2022/10/31 04:52:47;;;;;;;150.32;62.65;;;;;;;;;;4983062;28;20041;-67
2022/10/31 04:55:14;;;;;;;118.80;55.80;;;;;;;;;;4967496;28;20027;-67
2022/10/31 04:57:41;;;;;;;102.43;49.15;;;;;;;;;;4983917;28;20070;-67
2022/10/31 05:00:07;;;;;;;82.82;42.20;;;;;;;;;;4983730;28;20023;-67
2022/10/31 05:02:33;;;;;;;79.00;40.83;;;;;;;;;;4984487;28;20054;-66
2022/10/31 05:04:59;;;;;;;65.63;37.00;;;;;;;;;;4983020;28;20073;-67
2022/10/31 05:07:25;;;;;;;69.47;37.67;;;;;;;;;;4981242;28;20035;-67
2022/10/31 05:09:51;;;;;;;67.40;39.58;;;;;;;;;;4977458;28;20038;-67
2022/10/31 05:12:17;;;;;;;70.25;39.42;;;;;;;;;;4982483;28;20045;-67
2022/10/31 05:14:43;;;;;;;71.13;39.13;;;;;;;;;;4989613;28;20425;-67
2022/10/31 05:17:09;;;;;;;74.10;41.30;;;;;;;;;;4990831;28;20057;-67
2022/10/31 05:19:36;;;;;;;76.88;40.75;;;;;;;;;;4971598;28;20050;-67
2022/10/31 05:22:02;;;;;;;79.25;41.85;;;;;;;;;;4989642;28;20520;-67
2022/10/31 05:24:28;;;;;;;96.43;46.22;;;;;;;;;;4987457;28;20027;-67
2022/10/31 05:26:54;;;;;;;82.82;44.42;;;;;;;;;;4988807;28;20035;-67
2022/10/31 05:29:20;;;;;;;98.45;46.88;;;;;;;;;;4987101;28;20117;-67
2022/10/31 05:31:46;;;;;;;109.80;52.60;;;;;;;;;;4985133;28;20129;-67
2022/10/31 05:34:12;;;;;;;109.32;52.45;;;;;;;;;;4990095;28;20033;-67
2022/10/31 05:36:38;;;;;;;108.43;52.85;;;;;;;;;;4986518;28;20539;-66
2022/10/31 05:39:04;;;;;;;96.85;51.10;;;;;;;;;;4984371;28;20050;-67
2022/10/31 05:41:30;;;;;;;93.45;48.55;;;;;;;;;;4986314;28;20039;-67
2022/10/31 05:43:56;;;;;;;110.40;52.83;;;;;;;;;;4980519;28;20041;-68
2022/10/31 05:46:22;;;;;;;235.02;59.25;;;;;;;;;;4984387;28;20514;-68
2022/10/31 05:48:48;;;;;;;370.50;69.50;;;;;;;;;;4981811;28;20022;-68
2022/10/31 05:51:14;;;;;;;210.80;62.60;;;;;;;;;;4985631;28;20077;-67
2022/10/31 05:53:40;;;;;;;149.13;59.83;;;;;;;;;;4963575;28;20053;-68
2022/10/31 05:56:06;;;;;;;165.50;64.18;;;;;;;;;;4978128;28;20468;-67
2022/10/31 05:58:32;;;;;;;149.65;59.47;;;;;;;;;;4983351;28;20528;-67
2022/10/31 06:00:58;;;;;;;145.00;59.42;;;;;;;;;;4983694;28;20081;-67
2022/10/31 06:03:24;;;;;;;146.60;60.33;;;;;;;;;;4979764;28;20034;-67
2022/10/31 06:05:50;;;;;;;186.23;64.97;;;;;;;;;;4978397;28;20029;-67
2022/10/31 06:08:16;;;;;;;158.20;62.38;;;;;;;;;;4981738;28;20034;-67
2022/10/31 06:10:43;;;;;;;179.70;64.18;;;;;;;;;;4984686;28;20128;-67
2022/10/31 06:13:09;;;;;;;224.80;72.97;;;;;;;;;;4987885;28;20030;-67
2022/10/31 06:15:35;;;;;;;231.20;75.80;;;;;;;;;;4988650;28;20037;-67
2022/10/31 06:18:05;;;;;;;250.10;79.97;;;;;;;;;;4985301;28;20074;-66
2022/10/31 06:20:33;;;;;;;237.77;77.57;;;;;;;;;;4988198;28;20375;-67
2022/10/31 06:22:59;;;;;;;211.15;75.47;;;;;;;;;;4977877;28;20034;-67
2022/10/31 06:25:25;;;;;;;256.30;81.15;;;;;;;;;;4986549;28;20117;-67
2022/10/31 06:27:51;;;;;;;270.20;84.35;;;;;;;;;;4979437;28;20104;-67
2022/10/31 06:30:17;;;;;;;242.88;82.80;;;;;;;;;;4966100;28;20031;-67
2022/10/31 06:32:43;;;;;;;260.30;86.57;;;;;;;;;;4985797;28;20030;-67
2022/10/31 06:35:09;;;;;;;301.10;91.40;;;;;;;;;;4983512;28;20053;-66
2022/10/31 06:37:35;;;;;;;289.95;92.65;;;;;;;;;;4966850;28;20501;-66
2022/10/31 06:40:01;;;;;;;321.08;94.50;;;;;;;;;;4984352;28;20090;-66
2022/10/31 06:42:27;;;;;;;367.40;100.53;;;;;;;;;;4987304;28;20512;-66
2022/10/31 06:44:53;;;;;;;395.50;105.47;;;;;;;;;;4986537;28;20069;-66
2022/10/31 06:47:19;;;;;;;387.10;104.45;;;;;;;;;;4970644;28;20031;-67
2022/10/31 06:49:45;;;;;;;340.88;102.05;;;;;;;;;;4984067;28;20038;-66
2022/10/31 06:52:11;;;;;;;327.05;102.68;;;;;;;;;;4987165;28;20038;-66
2022/10/31 06:54:37;;;;;;;447.13;108.45;;;;;;;;;;4983148;28;20495;-66
2022/10/31 06:57:03;;;;;;;393.75;111.75;;;;;;;;;;4982269;28;20038;-67
2022/10/31 06:59:29;;;;;;;454.92;111.78;;;;;;;;;;4970217;28;20497;-66
2022/10/31 07:01:55;;;;;;;485.08;116.95;;;;;;;;;;4982640;28;20031;-66
2022/10/31 07:04:22;;;;;;;478.98;116.10;;;;;;;;;;4967554;28;20421;-66
2022/10/31 07:06:50;;;;;;;677.75;129.60;;;;;;;;;;4982747;28;20034;-67
2022/10/31 07:09:16;;;;;;;468.25;116.60;;;;;;;;;;4970851;28;20082;-67
2022/10/31 07:11:42;;;;;;;496.73;117.10;;;;;;;;;;4981681;28;20054;-67
2022/10/31 07:14:08;;;;;;;462.83;118.53;;;;;;;;;;4970979;28;20045;-66
2022/10/31 07:16:34;;;;;;;539.28;118.60;;;;;;;;;;4983568;28;20049;-70
2022/10/31 07:19:00;;;;;;;317.95;104.90;;;;;;;;;;4988213;28;20026;-67
2022/10/31 07:21:26;;;;;;;606.72;123.85;;;;;;;;;;4987170;28;20039;-67
2022/10/31 07:23:52;;;;;;;538.88;119.82;;;;;;;;;;4989466;28;20485;-67
2022/10/31 07:26:18;;;;;;;541.58;115.45;;;;;;;;;;4986350;28;20106;-67
2022/10/31 07:28:47;;;;;;;641.80;121.63;;;;;;;;;;4994025;28;20035;-66
2022/10/31 07:31:12;;;;;;;495.23;114.65;;;;;;;;;;4987687;28;20038;-66
2022/10/31 07:33:38;;;;;;;633.13;126.82;;;;;;;;;;4970810;28;20057;-68
2022/10/31 07:36:05;;;;;;;535.13;119.35;;;;;;;;;;4987236;28;20030;-67
2022/10/31 07:38:32;;;;;;;408.88;110.30;;;;;;;;;;4991209;28;20058;-66
2022/10/31 07:40:58;;;;;;;428.98;110.82;;;;;;;;;;4971646;28;20431;-67
2022/10/31 07:43:24;;;;;;;444.40;112.60;;;;;;;;;;4991169;28;20030;-67
2022/10/31 07:45:51;;;;;;;362.52;107.88;;;;;;;;;;4956799;28;20027;-67
2022/10/31 07:48:17;;;;;;;439.98;108.57;;;;;;;;;;4989637;28;20034;-67
2022/10/31 07:50:44;;;;;;;322.00;103.70;;;;;;;;;;4973680;28;20044;-67
2022/10/31 07:53:11;;;;;;;329.65;102.22;;;;;;;;;;4991235;28;20095;-67
2022/10/31 07:55:37;;;;;;;297.25;98.38;;;;;;;;;;4991659;28;20509;-67
2022/10/31 07:58:08;;;;;;;286.15;97.05;;;;;;;;;;4990632;28;20502;-67
2022/10/31 08:00:34;;;;;;;314.67;97.15;;;;;;;;;;4990562;28;20026;-67
2022/10/31 08:03:04;;;;;;;288.60;95.18;;;;;;;;;;4990042;28;20061;-67
2022/10/31 08:05:31;;;;;;;303.05;96.15;;;;;;;;;;4990086;28;20083;-66
2022/10/31 08:07:57;;;;;;;269.77;87.95;;;;;;;;;;4991093;28;20023;-67
2022/10/31 08:10:24;;;;;;;258.83;92.22;;;;;;;;;;4990771;28;20034;-67
2022/10/31 08:13:03;;;;;;;272.95;96.82;;;;;;;;;;4990739;28;20030;-68
2022/10/31 08:15:30;;;;;;;237.25;90.63;;;;;;;;;;4988236;28;20489;-67
2022/10/31 08:17:56;;;;;;;245.63;92.15;;;;;;;;;;4990102;28;20077;-67
2022/10/31 08:20:22;;;;;;;204.63;82.50;;;;;;;;;;4990196;28;20030;-67
2022/10/31 08:22:55;;;;;;;210.77;82.85;;;;;;;;;;4989471;28;20599;-67
2022/10/31 08:25:21;;;;;;;209.85;85.68;;;;;;;;;;4990876;28;20429;-67
2022/10/31 08:27:51;;;;;;;190.35;78.97;;;;;;;;;;4991019;28;20041;-67
2022/10/31 08:30:17;;;;;;;182.40;79.13;;;;;;;;;;4990389;28;20022;-66
2022/10/31 08:32:43;;;;;;;179.32;78.43;;;;;;;;;;4990881;28;20163;-67
2022/10/31 08:35:09;;;;;;;185.70;78.88;;;;;;;;;;4990654;28;20546;-66
2022/10/31 08:37:35;;;;;;;162.55;75.88;;;;;;;;;;4972478;28;20038;-67
2022/10/31 08:40:01;;;;;;;159.18;72.00;;;;;;;;;;4990232;28;20046;-66
2022/10/31 08:42:27;;;;;;;156.50;74.00;;;;;;;;;;4972017;28;20140;-69
2022/10/31 08:44:53;;;;;;;161.40;73.18;;;;;;;;;;4990488;28;20038;-66
2022/10/31 08:47:19;;;;;;;166.90;76.07;;;;;;;;;;4973959;28;20037;-66
2022/10/31 08:49:45;;;;;;;154.65;72.80;;;;;;;;;;4991044;28;20034;-66
2022/10/31 08:52:11;;;;;;;158.90;78.10;;;;;;;;;;4989526;28;20420;-66
2022/10/31 08:54:37;;;;;;;150.70;70.78;;;;;;;;;;4991018;28;20505;-68
2022/10/31 08:57:03;;;;;;;152.38;70.28;;;;;;;;;;4991569;28;20096;-66
2022/10/31 08:59:29;;;;;;;157.05;73.18;;;;;;;;;;4992195;28;20486;-65
2022/10/31 09:01:55;;;;;;;157.30;73.40;;;;;;;;;;4972705;28;20034;-66
2022/10/31 09:04:21;;;;;;;159.18;71.25;;;;;;;;;;4989501;28;20461;-67
2022/10/31 09:06:47;;;;;;;148.65;72.28;;;;;;;;;;4973649;28;20071;-67
2022/10/31 09:09:13;;;;;;;159.82;74.30;;;;;;;;;;4990265;28;20070;-67
2022/10/31 09:11:39;;;;;;;146.40;70.30;;;;;;;;;;4970865;28;20064;-68
2022/10/31 09:14:05;;;;;;;143.63;68.97;;;;;;;;;;4973371;28;20045;-67
2022/10/31 09:16:31;;;;;;;134.82;64.22;;;;;;;;;;4990506;28;20039;-66
2022/10/31 09:18:57;;;;;;;153.13;62.67;;;;;;;;;;4973362;28;20042;-67
2022/10/31 09:21:23;;;;;;;135.05;61.47;;;;;;;;;;4989751;28;20219;-67
2022/10/31 09:23:49;;;;;;;128.65;62.17;;;;;;;;;;4989683;28;20065;-66
2022/10/31 09:26:15;;;;;;;122.70;61.90;;;;;;;;;;4990365;28;20022;-67
2022/10/31 09:28:41;;;;;;;118.93;58.90;;;;;;;;;;4989473;28;20037;-68
2022/10/31 09:31:07;;;;;;;107.75;57.65;;;;;;;;;;4989356;28;20061;-69
2022/10/31 09:33:33;;;;;;;125.07;56.40;;;;;;;;;;4990178;28;20074;-67
2022/10/31 09:35:59;;;;;;;111.65;56.80;;;;;;;;;;4988690;28;20393;-68
2022/10/31 09:38:25;;;;;;;109.93;53.63;;;;;;;;;;4987765;28;20111;-67
2022/10/31 09:41:18;;;;;;;110.90;54.35;;;;;;;;;;4971991;28;20509;-67
2022/10/31 09:43:56;;;;;;;106.53;54.80;;;;;;;;;;4991496;28;20034;-65
2022/10/31 09:46:33;;;;;;;99.30;50.28;;;;;;;;;;4975580;28;20450;-68
2022/10/31 09:49:25;;;;;;;111.43;54.55;;;;;;;;;;4994185;28;20031;-68
2022/10/31 09:51:55;;;;;;;97.70;49.90;;;;;;;;;;4993667;28;20093;-68
2022/10/31 09:54:41;;;;;;;85.13;50.03;;;;;;;;;;4993695;28;20026;-68
2022/10/31 09:57:12;;;;;;;97.50;46.90;;;;;;;;;;4974600;28;20034;-65
2022/10/31 09:59:40;;;;;;;78.93;43.60;;;;;;;;;;4993926;28;20046;-68
2022/10/31 10:02:06;;;;;;;76.05;43.63;;;;;;;;;;4990976;28;20547;-69
2022/10/31 10:04:32;;;;;;;75.60;43.92;;;;;;;;;;4992320;28;20030;-67
2022/10/31 10:06:58;;;;;;;75.97;42.58;;;;;;;;;;4994316;28;20437;-68
2022/10/31 10:09:25;;;;;;;74.03;41.85;;;;;;;;;;4995316;28;20031;-68
2022/10/31 10:12:17;;;;;;;70.15;36.53;;;;;;;;;;4992850;28;20117;-68
2022/10/31 10:14:58;;;;;;;60.92;34.72;;;;;;;;;;4993219;28;20049;-66
2022/10/31 10:17:31;;;;;;;63.67;35.88;;;;;;;;;;4993998;28;20042;-66
2022/10/31 10:20:16;;;;;;;57.50;36.72;;;;;;;;;;4993063;28;20042;-65
2022/10/31 10:22:44;;;;;;;57.10;35.20;;;;;;;;;;4991991;28;20165;-67
2022/10/31 10:25:14;;;;;;;53.70;30.63;;;;;;;;;;4992404;28;20027;-68
2022/10/31 10:27:55;;;;;;;50.53;29.10;;;;;;;;;;4993426;28;20037;-68
2022/10/31 10:30:22;;;;;;;45.08;27.55;;;;;;;;;;4993181;28;20026;-66
2022/10/31 10:32:57;;;;;;;43.53;26.20;;;;;;;;;;4988841;28;20029;-68
2022/10/31 10:35:23;;;;;;;38.85;26.45;;;;;;;;;;4984542;28;20030;-66
2022/10/31 10:37:51;;;;;;;39.38;25.63;;;;;;;;;;4992616;28;20398;-66
2022/10/31 10:40:19;;;;;;;39.10;24.67;;;;;;;;;;4992860;28;20561;-65
2022/10/31 10:43:23;;;;;;;41.80;21.50;;;;;;;;;;4991605;28;20110;-66
2022/10/31 10:48:56;;;;;;;24.42;17.50;;;;;;;;;;4993019;28;20053;-67
2022/10/31 10:51:24;;;;;;;24.33;16.27;;;;;;;;;;4992690;28;20031;-66
2022/10/31 10:54:13;;;;;;;29.33;18.25;;;;;;;;;;4992113;28;20481;-67
2022/10/31 10:56:39;;;;;;;29.05;17.55;;;;;;;;;;4971652;28;20052;-68
2022/10/31 10:59:09;;;;;;;31.90;19.10;;;;;;;;;;4991980;28;20034;-66
2022/10/31 11:01:35;;;;;;;30.38;19.13;;;;;;;;;;4987670;28;20088;-66
2022/10/31 11:04:04;;;;;;;34.20;19.75;;;;;;;;;;4992123;28;20490;-66
2022/10/31 11:06:30;;;;;;;42.33;21.58;;;;;;;;;;4992252;28;20037;-66
2022/10/31 11:08:56;;;;;;;37.58;21.48;;;;;;;;;;4991671;28;20462;-66
2022/10/31 11:11:30;;;;;;;45.35;23.67;;;;;;;;;;4990831;28;20102;-66
2022/10/31 11:14:12;;;;;;;32.47;19.92;;;;;;;;;;4994236;28;20042;-66
2022/10/31 11:16:40;;;;;;;35.65;22.30;;;;;;;;;;4991922;28;20042;-66
2022/10/31 11:19:15;;;;;;;40.88;21.02;;;;;;;;;;4992417;28;20022;-66
2022/10/31 11:21:41;;;;;;;34.72;18.58;;;;;;;;;;4990641;28;20365;-65
2022/10/31 11:24:10;;;;;;;32.30;18.58;;;;;;;;;;4992179;28;20015;-66
2022/10/31 11:26:37;;;;;;;27.23;18.00;;;;;;;;;;4991983;28;20057;-66
2022/10/31 11:29:05;;;;;;;30.88;18.77;;;;;;;;;;4991838;28;20044;-65
2022/10/31 11:31:32;;;;;;;29.67;18.13;;;;;;;;;;4991651;28;20038;-65
2022/10/31 11:34:00;;;;;;;28.23;18.17;;;;;;;;;;4992600;28;20104;-65
2022/10/31 11:36:27;;;;;;;28.45;18.63;;;;;;;;;;4992100;28;20198;-67
2022/10/31 11:38:54;;;;;;;34.92;19.58;;;;;;;;;;4973932;28;20552;-67
2022/10/31 11:41:27;;;;;;;35.95;20.05;;;;;;;;;;4990609;28;20417;-66
2022/10/31 11:43:53;;;;;;;38.17;21.98;;;;;;;;;;4991934;28;20030;-65
2022/10/31 11:46:31;;;;;;;37.47;23.52;;;;;;;;;;4974109;28;20385;-67
2022/10/31 11:48:57;;;;;;;42.03;24.90;;;;;;;;;;4991807;28;20057;-67
2022/10/31 11:51:28;;;;;;;47.03;26.05;;;;;;;;;;4990911;28;20069;-71
2022/10/31 11:53:56;;;;;;;41.17;26.00;;;;;;;;;;4991702;28;20161;-66
2022/10/31 11:56:22;;;;;;;47.15;25.65;;;;;;;;;;4990835;28;20026;-67
2022/10/31 11:58:58;;;;;;;50.88;27.88;;;;;;;;;;4974118;28;20549;-66
2022/10/31 12:01:25;;;;;;;54.78;29.63;;;;;;;;;;4989644;28;20213;-67
2022/10/31 12:04:02;;;;;;;57.92;30.50;;;;;;;;;;4991629;28;20027;-70
2022/10/31 12:06:36;;;;;;;59.88;31.25;;;;;;;;;;4990732;28;20529;-68
2022/10/31 12:09:02;;;;;;;58.80;29.80;;;;;;;;;;4990777;28;20022;-65
2022/10/31 12:11:40;;;;;;;52.30;29.98;;;;;;;;;;4989614;28;20263;-67
2022/10/31 12:14:06;;;;;;;58.00;30.20;;;;;;;;;;4973594;28;20401;-67
2022/10/31 12:16:50;;;;;;;53.53;30.33;;;;;;;;;;4990524;28;20038;-67
2022/10/31 12:19:16;;;;;;;59.45;31.38;;;;;;;;;;4991913;28;20049;-67
2022/10/31 12:21:48;;;;;;;56.15;31.33;;;;;;;;;;4989131;28;20030;-67
2022/10/31 12:24:32;;;;;;;50.10;30.27;;;;;;;;;;4990725;28;20540;-67
2022/10/31 12:27:17;;;;;;;55.00;31.40;;;;;;;;;;4990776;28;20076;-67
2022/10/31 12:30:01;;;;;;;60.15;30.58;;;;;;;;;;4990469;28;20027;-67
2022/10/31 12:32:33;;;;;;;54.40;29.55;;;;;;;;;;4971711;28;20066;-66
2022/10/31 12:35:05;;;;;;;51.95;31.17;;;;;;;;;;4972046;28;20053;-67
2022/10/31 12:37:50;;;;;;;56.00;31.40;;;;;;;;;;4971840;28;20030;-67
2022/10/31 12:40:18;;;;;;;55.65;32.55;;;;;;;;;;4975090;28;20109;-67
2022/10/31 12:42:51;;;;;;;55.50;30.63;;;;;;;;;;4989970;28;20062;-66
2022/10/31 12:45:23;;;;;;;54.10;31.17;;;;;;;;;;4986821;28;20037;-67
2022/10/31 12:48:06;;;;;;;55.90;29.90;;;;;;;;;;4989297;28;20511;-67
2022/10/31 12:51:01;;;;;;;66.60;32.03;;;;;;;;;;4988760;28;20027;-66
2022/10/31 12:53:47;;;;;;;55.35;29.90;;;;;;;;;;4974305;28;20115;-67
2022/10/31 12:56:19;;;;;;;54.53;27.85;;;;;;;;;;4990647;28;20141;-67
2022/10/31 12:58:48;;;;;;;52.65;29.40;;;;;;;;;;4989811;28;20026;-67
2022/10/31 13:01:23;;;;;;;52.28;28.67;;;;;;;;;;4990165;28;20026;-67
2022/10/31 13:03:53;;;;;;;52.47;29.08;;;;;;;;;;4982615;28;20043;-67
2022/10/31 13:06:24;;;;;;;85.63;30.03;;;;;;;;;;4990511;28;20037;-67
2022/10/31 13:08:50;;;;;;;62.22;29.95;;;;;;;;;;4984862;28;20478;-67
2022/10/31 13:11:19;;;;;;;58.63;28.70;;;;;;;;;;4989044;28;20038;-67
2022/10/31 13:14:07;;;;;;;59.38;29.58;;;;;;;;;;4989600;28;20023;-67
2022/10/31 13:16:36;;;;;;;55.00;28.67;;;;;;;;;;4989356;28;20035;-67
2022/10/31 13:19:10;;;;;;;71.45;31.30;;;;;;;;;;4993676;28;20116;-68
2022/10/31 13:21:39;;;;;;;59.67;28.42;;;;;;;;;;4993029;28;20057;-65
2022/10/31 13:24:10;;;;;;;61.22;29.92;;;;;;;;;;4993731;28;20030;-67
2022/10/31 13:26:36;;;;;;;59.85;29.67;;;;;;;;;;4974324;28;20026;-67
2022/10/31 13:29:16;;;;;;;57.30;31.05;;;;;;;;;;4993451;28;20031;-67
2022/10/31 13:31:42;;;;;;;63.67;31.95;;;;;;;;;;4992143;28;20034;-67
2022/10/31 13:34:26;;;;;;;69.05;31.63;;;;;;;;;;4992832;28;20034;-67
2022/10/31 13:36:55;;;;;;;72.25;31.25;;;;;;;;;;4994075;28;20411;-67
2022/10/31 13:39:21;;;;;;;71.68;31.80;;;;;;;;;;4994342;28;20030;-67
2022/10/31 13:41:47;;;;;;;64.07;33.47;;;;;;;;;;4992345;28;20038;-68
2022/10/31 13:44:19;;;;;;;65.72;33.65;;;;;;;;;;4994090;28;20126;-67
2022/10/31 13:46:45;;;;;;;70.70;34.80;;;;;;;;;;4994101;28;20389;-66
2022/10/31 13:49:26;;;;;;;66.93;33.05;;;;;;;;;;4994185;28;20030;-67
2022/10/31 13:51:52;;;;;;;69.55;34.35;;;;;;;;;;4982280;28;20035;-67
2022/10/31 13:54:22;;;;;;;66.00;34.92;;;;;;;;;;4975931;28;20031;-66
2022/10/31 13:56:50;;;;;;;89.32;36.30;;;;;;;;;;4989836;28;20039;-67
2022/10/31 13:59:19;;;;;;;69.00;34.00;;;;;;;;;;4993812;28;20503;-67
2022/10/31 14:01:51;;;;;;;65.40;33.30;;;;;;;;;;4981909;28;20038;-67
2022/10/31 14:04:19;;;;;;;71.30;35.70;;;;;;;;;;4974543;28;20067;-67
2022/10/31 14:06:51;;;;;;;75.72;34.85;;;;;;;;;;4983164;28;20019;-67
2022/10/31 14:09:28;;;;;;;65.10;33.97;;;;;;;;;;4990745;28;20026;-67
2022/10/31 14:11:56;;;;;;;74.95;33.95;;;;;;;;;;4992126;28;20065;-66
2022/10/31 14:14:24;;;;;;;67.80;34.78;;;;;;;;;;4992190;28;20054;-66
2022/10/31 14:16:54;;;;;;;81.82;43.78;;;;;;;;;;4994967;28;20044;-67
2022/10/31 14:19:21;;;;;;;77.13;42.95;;;;;;;;;;4990521;28;20027;-67
2022/10/31 14:21:49;;;;;;;72.20;36.28;;;;;;;;;;4954806;28;20589;-67
2022/10/31 14:24:15;;;;;;;78.47;41.58;;;;;;;;;;4989332;28;20489;-68